Airfield :
LOGIN :

Register | Disclaimer

   EN    FR    IT 

 










Legend :    VFR   Marginal VFR   IFR   Intensive IFR   Very Intensive IFR
Visi :
Ceiling :
>= 8 km
>= 3000ft
5 to 8 km
1000 to 3000 ft
1500m to 5 km
500 to 1000 ft
800 to 1500m
200 to 500 ft
< 800m
< 200 ft
Symbols :   Thunderstorms  Fog  Heavy snow  Heavy precipitations  Wind > 20 kt
SIGMETs :     Misc.  Thunderstorms  Icing  Turbulence  Mountain Waves  Volcanic Ashes






- Airport Elevation : 3006 ft
- IATA code : LEN


LELN - Leon

CURRENT METAR :
  • 250530Z AUTO 36005KT CAVOK 09/05 Q1016

EXPIRED METARs :
  • 250500Z AUTO 36004KT CAVOK 09/05 Q1016
  • 250430Z AUTO 35006KT CAVOK 09/05 Q1017
  • 250400Z AUTO 35005KT CAVOK 08/05 Q1016
  • 250330Z AUTO 36004KT CAVOK 09/05 Q1017
  • 250300Z AUTO VRB02KT CAVOK 06/04 Q1017
  • 250230Z AUTO 24003KT 190V300 CAVOK 08/05 Q1017
  • 250200Z AUTO 36005KT CAVOK 10/06 Q1017
  • 250130Z AUTO 35006KT 9000 NCD 11/06 Q1017
  • 250030Z AUTO 34005KT CAVOK 12/06 Q1017

TAF TAF LELN
Valid from the 25 at 03:00 until the 26 at 03:00 UTC


250200Z 2503/2603 VRB03KT CAVOK TX23/2514Z TN04/2505Z
TEMPO 2510/2520 25008KT
PROB40
TEMPO 2512/2520 27015G25KT



MET'MAP, your aeronautical weather chart ! - Copyright ORBIFLY December 2007 - Disclaimer

ORBIFLY MET'MAP TEAM :

Programming & Development : Alexandra Zaïnal
Original concept : Baudouin d'Aumeries
Technical & hardware support : Manuel Goepfert
Assistance : Marc-Olivier Méhu




SOURCES & CREDITS :

   NOAA